Terminal Aerodrome Forecast
Issued by NWS Salt Lake City, UT

Home | Current Version | Previous Version | Text Only | Print | Product List | Glossary On
Versions: 1 2 3 4 5 6 7 8 9 10 11 12 13 14 15
000
FTUS45 KSLC 250532
TAFCDC
TAF
KCDC 250532Z 2506/2606 20006KT P6SM SCT080 BKN150
     FM251600 23007KT P6SM VCSH SCT030 BKN060
     FM251900 32008KT P6SM -RA SCT020 BKN040
     FM260000 VRB04KT P6SM VCSH SCT030 BKN060=

USA.gov is the U.S. government's official web portal to all federal, state and local government web resources and services.